Time;durP1;ratioP1;P1;durP2;ratioP2;P2;SDS_P1;SDS_P2;PMS_P1;PMS_P2;Temp;Humidity;BMP_temperature;BMP_pressure;BME280_temperature;BME280_humidity;BME280_pressure;Samples;Min_cycle;Max_cycle;Signal;HPM_P1;HPM_P2
2022/08/09 00:01:19;;;;;;;7.90;4.07;;;15.40;71.30;;;;;;5085276;28;20194;-62
2022/08/09 00:03:45;;;;;;;4.50;3.70;;;15.30;72.30;;;;;;5084525;28;20206;-62
2022/08/09 00:06:11;;;;;;;3.23;3.00;;;15.30;72.50;;;;;;5082674;28;20239;-62
2022/08/09 00:08:36;;;;;;;4.27;3.90;;;15.30;73.40;;;;;;5077955;28;20197;-61
2022/08/09 00:11:02;;;;;;;4.10;3.80;;;15.30;73.80;;;;;;5083300;28;20185;-62
2022/08/09 00:13:28;;;;;;;6.10;3.37;;;15.30;74.20;;;;;;5090233;28;20201;-62
2022/08/09 00:15:54;;;;;;;3.90;3.50;;;15.30;74.90;;;;;;5086948;28;20182;-62
2022/08/09 00:18:19;;;;;;;4.10;3.70;;;15.20;75.10;;;;;;5091000;28;20466;-62
2022/08/09 00:20:45;;;;;;;4.10;3.80;;;15.20;76.00;;;;;;5085119;28;20185;-62
2022/08/09 00:23:11;;;;;;;4.77;4.00;;;15.10;76.70;;;;;;5081979;28;20229;-62
2022/08/09 00:25:36;;;;;;;5.00;3.50;;;15.10;78.40;;;;;;5084293;28;20186;-62
2022/08/09 00:28:05;;;;;;;3.87;3.50;;;15.10;79.00;;;;;;5089812;28;20424;-62
2022/08/09 00:30:34;;;;;;;5.77;3.83;;;15.10;78.90;;;;;;5082344;28;20189;-62
2022/08/09 00:32:59;;;;;;;5.23;3.90;;;15.00;79.00;;;;;;5089577;28;20530;-62
2022/08/09 00:35:25;;;;;;;5.30;3.70;;;15.00;79.90;;;;;;5089579;28;20930;-61
2022/08/09 00:37:51;;;;;;;4.10;3.80;;;15.00;80.00;;;;;;5086236;28;20170;-62
2022/08/09 00:40:16;;;;;;;4.10;3.60;;;15.00;81.10;;;;;;5087628;28;20170;-62
2022/08/09 00:42:42;;;;;;;3.83;3.53;;;14.90;81.30;;;;;;5081312;28;20190;-62
2022/08/09 00:45:08;;;;;;;4.63;4.23;;;14.90;82.90;;;;;;5077031;28;20178;-62
2022/08/09 00:47:34;;;;;;;4.27;3.87;;;14.80;83.60;;;;;;5089117;28;20174;-62
2022/08/09 00:49:59;;;;;;;6.40;3.80;;;14.80;83.70;;;;;;5079628;28;20828;-62
2022/08/09 00:52:29;;;;;;;4.93;3.70;;;14.80;84.00;;;;;;5089135;28;20229;-62
2022/08/09 00:54:56;;;;;;;4.70;3.60;;;14.80;83.80;;;;;;5086139;28;20215;-62
2022/08/09 00:57:22;;;;;;;6.37;3.90;;;14.80;84.10;;;;;;5088896;28;20428;-62
2022/08/09 00:59:48;;;;;;;4.27;3.90;;;14.70;84.70;;;;;;5079189;28;20436;-62
2022/08/09 01:02:20;;;;;;;4.27;3.90;;;14.70;86.00;;;;;;5082596;28;20490;-62
2022/08/09 01:04:56;;;;;;;4.37;3.87;;;14.60;86.00;;;;;;5082871;28;20297;-62
2022/08/09 01:07:41;;;;;;;4.40;4.00;;;14.60;86.30;;;;;;5084899;28;20564;-62
2022/08/09 01:10:28;;;;;;;4.13;3.73;;;14.60;86.80;;;;;;5086232;28;20462;-62
2022/08/09 01:13:02;;;;;;;4.13;3.83;;;14.60;87.20;;;;;;5073695;28;20459;-62
2022/08/09 01:15:33;;;;;;;3.87;3.43;;;14.60;87.90;;;;;;5078899;28;20446;-62
2022/08/09 01:18:06;;;;;;;5.50;3.90;;;14.50;89.40;;;;;;5086721;28;20807;-62
2022/08/09 01:20:44;;;;;;;5.30;3.80;;;14.50;90.10;;;;;;5080736;28;20431;-62
2022/08/09 01:23:49;;;;;;;4.30;3.90;;;14.50;90.50;;;;;;5087317;28;20451;-62
2022/08/09 01:26:30;;;;;;;4.97;3.80;;;14.40;90.60;;;;;;5084264;28;20482;-62
2022/08/09 01:28:58;;;;;;;4.20;3.90;;;14.40;90.80;;;;;;5086474;28;21029;-62
2022/08/09 01:31:27;;;;;;;5.97;4.30;;;14.40;91.30;;;;;;5085905;28;20427;-62
2022/08/09 01:33:55;;;;;;;8.13;4.10;;;14.40;91.40;;;;;;5073884;28;20448;-61
2022/08/09 01:36:23;;;;;;;4.20;3.90;;;14.30;91.80;;;;;;5081805;28;21098;-61
2022/08/09 01:38:50;;;;;;;4.30;4.00;;;14.20;92.10;;;;;;5080889;28;21071;-62
2022/08/09 01:41:22;;;;;;;4.73;4.27;;;14.20;92.70;;;;;;5088534;28;20443;-62
2022/08/09 01:43:54;;;;;;;5.50;4.60;;;14.20;93.00;;;;;;5086802;28;20535;-63
2022/08/09 01:46:38;;;;;;;4.90;4.40;;;14.20;93.20;;;;;;5080602;28;20459;-62
2022/08/09 01:49:08;;;;;;;4.17;3.80;;;14.10;93.20;;;;;;5076923;28;20566;-61
2022/08/09 01:51:35;;;;;;;5.40;4.70;;;14.10;93.50;;;;;;5082859;28;20490;-62
2022/08/09 01:54:04;;;;;;;7.77;3.60;;;14.10;93.90;;;;;;5088897;28;20418;-61
2022/08/09 01:56:32;;;;;;;4.70;4.30;;;14.00;94.10;;;;;;5076989;28;20436;-61
2022/08/09 01:59:00;;;;;;;7.00;4.13;;;14.00;94.10;;;;;;5088512;28;20426;-62
2022/08/09 02:01:27;;;;;;;5.00;4.10;;;14.00;94.30;;;;;;5084080;28;20439;-61
2022/08/09 02:03:55;;;;;;;4.83;4.10;;;14.00;94.60;;;;;;5082089;28;20486;-60
2022/08/09 02:09:09;;;;;;;6.53;5.07;;;13.90;95.30;;;;;;5084773;28;21052;-60
2022/08/09 02:11:35;;;;;;;4.57;4.17;;;13.90;95.50;;;;;;5077986;28;20925;-60
2022/08/09 02:14:03;;;;;;;4.70;4.30;;;13.80;95.90;;;;;;5079799;28;20508;-61
2022/08/09 02:16:32;;;;;;;5.23;4.40;;;13.80;96.00;;;;;;5083463;28;20459;-61
2022/08/09 02:18:59;;;;;;;4.23;3.93;;;13.80;96.30;;;;;;5084409;28;20512;-60
2022/08/09 02:21:26;;;;;;;5.90;5.13;;;13.70;96.50;;;;;;5084123;28;20493;-60
2022/08/09 02:23:54;;;;;;;7.07;5.00;;;13.70;96.50;;;;;;5079848;28;20933;-64
2022/08/09 02:26:23;;;;;;;6.10;4.57;;;13.70;96.70;;;;;;5083714;28;20436;-61
2022/08/09 02:28:59;;;;;;;8.77;4.57;;;13.80;96.70;;;;;;5073804;28;20455;-61
2022/08/09 02:31:29;;;;;;;6.53;4.20;;;13.80;96.70;;;;;;5081839;28;20435;-62
2022/08/09 02:34:00;;;;;;;5.60;4.60;;;13.70;96.70;;;;;;5076508;28;21102;-61
2022/08/09 02:36:33;;;;;;;5.00;4.50;;;13.70;97.20;;;;;;5084010;28;20858;-61
2022/08/09 02:39:04;;;;;;;5.23;4.73;;;13.60;97.30;;;;;;5088547;28;20438;-62
2022/08/09 02:41:34;;;;;;;4.50;4.10;;;13.60;97.60;;;;;;5080626;28;20487;-61
2022/08/09 02:44:05;;;;;;;5.10;4.67;;;13.60;97.70;;;;;;5087795;28;20451;-61
2022/08/09 02:46:34;;;;;;;4.87;4.43;;;13.60;97.90;;;;;;5080605;28;20857;-61
2022/08/09 02:49:04;;;;;;;5.40;4.90;;;13.50;98.00;;;;;;5081480;28;21131;-61
2022/08/09 02:51:35;;;;;;;5.47;4.97;;;13.50;98.30;;;;;;5078859;28;20953;-61
2022/08/09 02:54:02;;;;;;;5.27;4.77;;;13.50;98.70;;;;;;5073831;28;20513;-61
2022/08/09 02:56:31;;;;;;;5.20;4.17;;;13.50;98.60;;;;;;5078432;28;20421;-61
2022/08/09 02:59:00;;;;;;;5.27;4.87;;;13.50;98.80;;;;;;5071980;28;20471;-63
2022/08/09 03:01:27;;;;;;;5.60;5.10;;;13.40;99.00;;;;;;5072527;28;21192;-61
2022/08/09 03:03:53;;;;;;;5.60;4.70;;;13.40;99.10;;;;;;5076889;28;20463;-61
2022/08/09 03:06:21;;;;;;;6.57;4.20;;;13.40;99.20;;;;;;5086213;28;20791;-61
2022/08/09 03:08:48;;;;;;;7.00;4.50;;;13.40;99.40;;;;;;5085183;28;20516;-61
2022/08/09 03:11:16;;;;;;;4.47;4.07;;;13.40;99.70;;;;;;5073797;28;20429;-60
2022/08/09 03:13:44;;;;;;;7.07;4.57;;;13.40;99.90;;;;;;5080560;28;20479;-61
2022/08/09 03:16:10;;;;;;;4.50;4.10;;;13.40;99.90;;;;;;5070853;28;21052;-61
2022/08/09 03:18:36;;;;;;;9.50;4.60;;;13.30;99.80;;;;;;5082737;28;20498;-61
2022/08/09 03:21:04;;;;;;;5.10;4.63;;;13.30;99.90;;;;;;5078555;28;20432;-61
2022/08/09 03:23:30;;;;;;;4.93;4.47;;;13.30;99.90;;;;;;5087098;28;20448;-61
2022/08/09 03:25:57;;;;;;;5.40;4.70;;;13.30;99.90;;;;;;5079343;28;20569;-61
2022/08/09 03:28:25;;;;;;;6.13;4.37;;;13.30;99.90;;;;;;5080247;28;20260;-61
2022/08/09 03:30:53;;;;;;;5.20;4.80;;;13.30;99.90;;;;;;5077422;28;20443;-61
2022/08/09 03:33:21;;;;;;;5.63;5.13;;;13.30;99.90;;;;;;5077131;28;20452;-61
2022/08/09 03:35:49;;;;;;;7.57;4.60;;;13.30;99.90;;;;;;5087186;28;20443;-61
2022/08/09 03:38:15;;;;;;;7.83;4.90;;;13.20;99.90;;;;;;5089589;28;20878;-61
2022/08/09 03:40:40;;;;;;;4.90;4.50;;;13.20;99.90;;;;;;5082643;28;20536;-60
2022/08/09 03:43:06;;;;;;;5.80;5.30;;;13.20;99.90;;;;;;5077934;28;20209;-61
2022/08/09 03:45:31;;;;;;;6.20;5.20;;;13.20;99.90;;;;;;5074071;28;20198;-60
2022/08/09 03:47:57;;;;;;;5.27;4.87;;;13.10;99.90;;;;;;5088278;28;20205;-60
2022/08/09 03:50:25;;;;;;;5.60;4.73;;;13.10;99.90;;;;;;5074010;28;20195;-61
2022/08/09 03:52:53;;;;;;;5.10;4.70;;;13.10;99.90;;;;;;5078518;28;20197;-61
2022/08/09 03:55:19;;;;;;;5.90;4.90;;;13.10;99.90;;;;;;5080336;28;20432;-60
2022/08/09 03:57:47;;;;;;;4.93;4.53;;;13.00;99.90;;;;;;5076272;28;20435;-61
2022/08/09 04:00:13;;;;;;;7.43;5.10;;;13.00;99.90;;;;;;5086345;28;20844;-60
2022/08/09 04:02:42;;;;;;;6.60;4.93;;;13.00;99.90;;;;;;5069828;28;20468;-61
2022/08/09 04:05:09;;;;;;;7.80;5.53;;;12.90;99.90;;;;;;5074033;28;20440;-61
2022/08/09 04:07:36;;;;;;;5.90;5.27;;;12.90;99.90;;;;;;5083623;28;20431;-60
2022/08/09 04:10:02;;;;;;;5.80;5.20;;;12.90;99.90;;;;;;5087247;28;20458;-60
2022/08/09 04:12:42;;;;;;;6.83;5.30;;;12.90;99.90;;;;;;5073223;28;20544;-61
2022/08/09 04:15:08;;;;;;;5.60;5.00;;;12.90;99.90;;;;;;5076937;28;20419;-61
2022/08/09 04:17:34;;;;;;;5.47;4.97;;;12.90;99.90;;;;;;5091056;28;20417;-60
2022/08/09 04:20:00;;;;;;;5.47;4.97;;;12.90;99.90;;;;;;5080152;28;20438;-60
2022/08/09 04:22:25;;;;;;;7.60;5.40;;;12.90;99.90;;;;;;5083700;28;20312;-60
2022/08/09 04:24:51;;;;;;;6.10;5.47;;;12.80;99.90;;;;;;5086152;28;20181;-60
2022/08/09 04:27:17;;;;;;;5.53;4.80;;;12.80;99.90;;;;;;5090788;28;20182;-60
2022/08/09 04:29:43;;;;;;;9.20;5.27;;;12.90;99.90;;;;;;5082585;28;20190;-61
2022/08/09 04:32:08;;;;;;;5.97;5.33;;;12.90;99.90;;;;;;5083736;28;20201;-61
2022/08/09 04:34:34;;;;;;;5.73;5.23;;;12.90;99.90;;;;;;5087411;28;20178;-61
2022/08/09 04:37:00;;;;;;;6.00;5.30;;;12.80;99.90;;;;;;5083522;28;20519;-61
2022/08/09 04:39:26;;;;;;;6.47;5.53;;;12.90;99.90;;;;;;5082844;28;20192;-60
2022/08/09 04:41:52;;;;;;;5.90;5.40;;;12.80;99.90;;;;;;5087146;28;20914;-61
2022/08/09 04:44:17;;;;;;;5.20;4.80;;;12.80;99.90;;;;;;5084269;28;20439;-60
2022/08/09 04:46:43;;;;;;;5.40;4.90;;;12.80;99.90;;;;;;5076656;28;20209;-60
2022/08/09 04:49:08;;;;;;;5.90;5.40;;;12.80;99.90;;;;;;5087849;28;20736;-61
2022/08/09 04:51:35;;;;;;;7.60;5.10;;;12.80;99.90;;;;;;5079138;28;20228;-61
2022/08/09 04:54:01;;;;;;;5.50;5.00;;;12.80;99.90;;;;;;5081184;28;20252;-60
2022/08/09 04:56:26;;;;;;;6.93;6.20;;;12.80;99.90;;;;;;5083253;28;20428;-61
2022/08/09 04:58:52;;;;;;;6.80;5.30;;;12.80;99.90;;;;;;5081992;28;20442;-61
2022/08/09 05:01:18;;;;;;;5.90;5.33;;;12.80;99.90;;;;;;5082415;28;20197;-61
2022/08/09 05:03:44;;;;;;;5.67;5.17;;;12.90;99.90;;;;;;5085001;28;21215;-61
2022/08/09 05:06:10;;;;;;;7.23;5.63;;;12.90;99.90;;;;;;5084813;28;20675;-61
2022/08/09 05:08:37;;;;;;;6.97;5.60;;;13.00;99.90;;;;;;5081878;28;20186;-61
2022/08/09 05:11:03;;;;;;;5.53;5.03;;;13.00;99.90;;;;;;5073315;28;20495;-61
2022/08/09 05:13:29;;;;;;;12.17;5.53;;;13.10;99.90;;;;;;5083302;28;20498;-60
2022/08/09 05:15:54;;;;;;;5.43;4.93;;;13.20;99.90;;;;;;5078386;28;20952;-60
2022/08/09 05:18:20;;;;;;;6.90;5.40;;;13.30;99.90;;;;;;5082793;28;20178;-61
2022/08/09 05:20:46;;;;;;;6.20;5.33;;;13.40;99.90;;;;;;5085766;28;20181;-61
2022/08/09 05:23:12;;;;;;;5.80;5.30;;;13.40;99.90;;;;;;5077594;28;20228;-62
2022/08/09 05:25:38;;;;;;;5.87;5.27;;;13.50;99.90;;;;;;5080181;28;20649;-61
2022/08/09 05:28:04;;;;;;;6.03;5.50;;;13.60;99.90;;;;;;5079853;28;20531;-61
2022/08/09 05:30:30;;;;;;;5.50;5.00;;;13.70;99.90;;;;;;5079814;28;20201;-61
2022/08/09 05:32:56;;;;;;;5.70;5.20;;;13.80;99.90;;;;;;5075511;28;20497;-61
2022/08/09 05:35:21;;;;;;;5.20;4.70;;;13.90;99.90;;;;;;5086398;28;20174;-61
2022/08/09 05:37:50;;;;;;;5.97;5.37;;;14.00;99.90;;;;;;5087940;28;20173;-61
2022/08/09 05:40:16;;;;;;;5.77;5.27;;;14.00;99.90;;;;;;5089330;28;20173;-61
2022/08/09 05:42:41;;;;;;;7.30;6.27;;;14.10;99.80;;;;;;5071818;28;20610;-61
2022/08/09 05:45:07;;;;;;;5.90;5.40;;;14.20;99.10;;;;;;5076809;28;20428;-61
2022/08/09 05:47:33;;;;;;;6.27;5.20;;;14.20;98.70;;;;;;5085642;28;20208;-62
2022/08/09 05:49:59;;;;;;;8.00;5.30;;;14.30;99.20;;;;;;5080383;28;20794;-62
2022/08/09 05:52:24;;;;;;;8.27;5.97;;;14.40;99.00;;;;;;5079485;28;20873;-60
2022/08/09 05:54:50;;;;;;;6.90;5.60;;;14.40;98.40;;;;;;5081990;28;20546;-60
2022/08/09 05:57:16;;;;;;;6.30;5.40;;;14.50;98.70;;;;;;5085626;28;20189;-62
2022/08/09 05:59:41;;;;;;;6.47;5.70;;;14.60;98.80;;;;;;5090186;28;20643;-61
2022/08/09 06:02:08;;;;;;;5.90;5.30;;;14.70;98.50;;;;;;5074660;28;20490;-61
2022/08/09 06:04:33;;;;;;;8.10;5.30;;;14.80;98.70;;;;;;5083407;28;21069;-62
2022/08/09 06:06:59;;;;;;;5.43;4.93;;;14.90;98.00;;;;;;5084840;28;20428;-60
2022/08/09 06:09:24;;;;;;;6.10;5.20;;;15.00;97.50;;;;;;5084535;28;20200;-61
2022/08/09 06:11:50;;;;;;;7.33;6.00;;;15.10;96.80;;;;;;5090950;28;20177;-61
2022/08/09 06:14:19;;;;;;;5.80;5.27;;;15.30;96.30;;;;;;5074569;28;20644;-61
2022/08/09 06:16:44;;;;;;;5.90;5.30;;;15.40;96.00;;;;;;5082590;28;21487;-61
2022/08/09 06:19:13;;;;;;;5.23;4.73;;;15.50;96.30;;;;;;5076305;28;20434;-62
2022/08/09 06:21:39;;;;;;;8.00;5.77;;;15.60;95.60;;;;;;5082640;28;20640;-61
2022/08/09 06:24:05;;;;;;;8.73;5.80;;;15.70;96.30;;;;;;5083345;28;20451;-61
2022/08/09 06:26:33;;;;;;;11.83;5.60;;;15.80;95.90;;;;;;5088706;28;20432;-61
2022/08/09 06:28:59;;;;;;;5.97;5.27;;;15.90;96.20;;;;;;5086580;28;20194;-61
2022/08/09 06:31:25;;;;;;;7.73;5.40;;;16.10;96.70;;;;;;5079935;28;20461;-62
2022/08/09 06:33:50;;;;;;;7.63;4.70;;;16.20;96.70;;;;;;5086082;28;21144;-61
2022/08/09 06:36:16;;;;;;;8.63;4.93;;;16.30;96.00;;;;;;5086664;28;20193;-61
2022/08/09 06:38:43;;;;;;;7.80;4.93;;;16.40;95.40;;;;;;5081975;28;20527;-61
2022/08/09 06:41:09;;;;;;;5.43;4.60;;;16.60;95.20;;;;;;5079092;28;20206;-62
2022/08/09 06:43:35;;;;;;;5.13;4.73;;;16.70;94.80;;;;;;5089694;28;20450;-61
2022/08/09 06:46:00;;;;;;;6.47;4.90;;;16.90;93.70;;;;;;5074395;28;20266;-62
2022/08/09 06:48:26;;;;;;;6.57;4.50;;;17.10;91.70;;;;;;5083564;28;20233;-61
2022/08/09 06:50:52;;;;;;;5.73;4.27;;;17.20;90.30;;;;;;5078863;28;20201;-61
2022/08/09 06:53:18;;;;;;;4.70;4.27;;;17.40;87.70;;;;;;5070663;28;20189;-61
2022/08/09 06:55:43;;;;;;;5.50;4.57;;;17.60;86.50;;;;;;5075343;28;20525;-61
2022/08/09 06:58:09;;;;;;;4.37;4.00;;;17.70;84.00;;;;;;5075916;28;20424;-61
2022/08/09 07:00:35;;;;;;;6.90;4.23;;;17.90;80.60;;;;;;5075042;28;20190;-62
2022/08/09 07:03:02;;;;;;;4.77;4.13;;;18.00;78.70;;;;;;5073420;28;20218;-62
2022/08/09 07:05:28;;;;;;;4.60;4.20;;;18.20;76.80;;;;;;5076741;28;20436;-62
2022/08/09 07:07:54;;;;;;;6.10;4.03;;;18.30;74.50;;;;;;5075064;28;20466;-62
2022/08/09 07:10:20;;;;;;;4.47;4.07;;;18.50;73.70;;;;;;5063372;28;20585;-61
2022/08/09 07:12:46;;;;;;;4.13;3.70;;;18.60;71.80;;;;;;5068649;28;20202;-62
2022/08/09 07:15:12;;;;;;;9.93;4.30;;;18.70;69.80;;;;;;5078479;28;20431;-62
2022/08/09 07:17:37;;;;;;;5.77;3.47;;;18.80;68.40;;;;;;5083850;28;20205;-63
2022/08/09 07:20:03;;;;;;;4.57;4.27;;;19.00;68.20;;;;;;5073708;28;20213;-62
2022/08/09 07:22:29;;;;;;;4.53;4.00;;;19.10;66.80;;;;;;5077839;28;20273;-63
2022/08/09 07:24:55;;;;;;;4.27;3.73;;;19.20;67.40;;;;;;5079496;28;20929;-63
2022/08/09 07:27:20;;;;;;;4.97;4.13;;;19.30;66.30;;;;;;5071371;28;20911;-62
2022/08/09 07:29:46;;;;;;;6.70;3.40;;;19.50;66.50;;;;;;5077435;28;20288;-62
2022/08/09 07:32:12;;;;;;;4.10;3.30;;;19.70;64.40;;;;;;5082777;28;20198;-63
2022/08/09 07:34:37;;;;;;;3.80;3.50;;;19.90;63.30;;;;;;5080948;28;20179;-63
2022/08/09 07:37:03;;;;;;;3.83;3.40;;;20.10;61.30;;;;;;5086670;28;20252;-62
2022/08/09 07:39:29;;;;;;;3.63;3.33;;;20.30;60.60;;;;;;5085777;28;20243;-62
2022/08/09 07:41:54;;;;;;;3.10;2.90;;;20.40;60.30;;;;;;5071107;28;20186;-62
2022/08/09 07:44:20;;;;;;;3.63;3.30;;;20.50;59.20;;;;;;5074119;28;20681;-62
2022/08/09 07:46:46;;;;;;;3.40;3.03;;;20.70;58.60;;;;;;5065293;28;20546;-62
2022/08/09 07:49:12;;;;;;;4.20;3.60;;;20.80;58.00;;;;;;5080979;28;20204;-62
2022/08/09 07:51:38;;;;;;;3.50;3.20;;;20.90;57.40;;;;;;5078338;28;20522;-61
2022/08/09 07:54:04;;;;;;;3.50;2.80;;;21.00;57.00;;;;;;5084882;28;20184;-62
2022/08/09 07:56:30;;;;;;;4.57;3.33;;;21.20;56.60;;;;;;5084731;28;20244;-62
2022/08/09 07:58:56;;;;;;;5.73;3.20;;;21.30;55.70;;;;;;5080453;28;20439;-63
2022/08/09 08:01:22;;;;;;;5.13;3.50;;;21.40;55.30;;;;;;5075234;28;20843;-62
2022/08/09 08:03:47;;;;;;;4.63;3.13;;;21.50;55.40;;;;;;5093195;28;20447;-62
2022/08/09 08:06:13;;;;;;;3.20;2.90;;;21.60;55.20;;;;;;5091279;28;20188;-62
2022/08/09 08:08:38;;;;;;;7.33;2.93;;;21.70;54.60;;;;;;5086582;28;20193;-62
2022/08/09 08:11:04;;;;;;;6.70;3.40;;;21.70;53.60;;;;;;5086830;28;20237;-63
2022/08/09 08:13:30;;;;;;;3.40;2.90;;;21.80;53.00;;;;;;5094424;28;20254;-62
2022/08/09 08:15:55;;;;;;;6.80;3.30;;;21.90;52.70;;;;;;5088998;28;20174;-61
2022/08/09 08:18:21;;;;;;;3.50;3.10;;;22.00;52.70;;;;;;5087123;28;20219;-62
2022/08/09 08:20:47;;;;;;;3.50;3.20;;;22.10;53.20;;;;;;5082058;28;20776;-62
2022/08/09 08:23:13;;;;;;;3.33;3.03;;;22.10;52.90;;;;;;5078541;28;20209;-62
2022/08/09 08:25:38;;;;;;;3.87;2.80;;;22.20;52.70;;;;;;5084597;28;20186;-62
2022/08/09 08:28:04;;;;;;;3.40;2.97;;;22.30;51.70;;;;;;5086412;28;20282;-62
2022/08/09 08:30:30;;;;;;;5.47;3.30;;;22.30;51.80;;;;;;5083289;28;20213;-62
2022/08/09 08:32:56;;;;;;;3.10;2.80;;;22.40;52.10;;;;;;5082230;28;20197;-62
2022/08/09 08:35:21;;;;;;;3.67;2.80;;;22.50;51.50;;;;;;5077314;28;20179;-62
2022/08/09 08:37:47;;;;;;;3.83;3.10;;;22.60;51.40;;;;;;5077013;28;20242;-62
2022/08/09 08:40:14;;;;;;;3.60;3.30;;;22.60;51.20;;;;;;5083950;28;20209;-63
2022/08/09 08:42:41;;;;;;;3.70;3.40;;;22.60;51.00;;;;;;5092747;28;20198;-62
2022/08/09 08:45:09;;;;;;;4.47;3.20;;;22.70;51.00;;;;;;5091288;28;20416;-61
2022/08/09 08:47:35;;;;;;;7.60;3.50;;;22.70;50.80;;;;;;5083879;28;20932;-61
2022/08/09 08:50:02;;;;;;;3.50;2.70;;;22.80;50.60;;;;;;5078128;28;20487;-62
2022/08/09 08:52:29;;;;;;;11.30;3.03;;;22.90;50.00;;;;;;5092378;28;20485;-62
2022/08/09 08:54:59;;;;;;;3.30;3.00;;;22.90;49.40;;;;;;5091261;28;20449;-62
2022/08/09 08:57:26;;;;;;;8.40;3.23;;;23.00;49.20;;;;;;5087376;28;20481;-62
2022/08/09 08:59:53;;;;;;;4.30;3.60;;;23.10;49.10;;;;;;5088038;28;20466;-62
2022/08/09 09:02:27;;;;;;;3.13;2.80;;;23.20;49.00;;;;;;5081046;28;20470;-61
2022/08/09 09:04:54;;;;;;;3.13;2.93;;;23.30;48.70;;;;;;5089040;28;20484;-61
2022/08/09 09:07:22;;;;;;;3.20;2.97;;;23.30;48.20;;;;;;5079663;28;20468;-61
2022/08/09 09:09:49;;;;;;;3.30;3.10;;;23.40;48.90;;;;;;5081486;28;20455;-60
2022/08/09 09:12:16;;;;;;;5.90;3.00;;;23.50;48.80;;;;;;5080583;28;20594;-60
2022/08/09 09:14:43;;;;;;;8.97;3.00;;;23.50;47.90;;;;;;5082063;28;20498;-61
2022/08/09 09:17:10;;;;;;;3.00;2.80;;;23.60;47.70;;;;;;5078208;28;20473;-61
2022/08/09 09:19:36;;;;;;;2.90;2.70;;;23.70;47.60;;;;;;5079001;28;20435;-61
2022/08/09 09:22:06;;;;;;;3.90;3.10;;;23.70;46.90;;;;;;5076420;28;20447;-62
2022/08/09 09:24:38;;;;;;;2.87;2.67;;;23.90;47.50;;;;;;5074912;28;20524;-61
2022/08/09 09:27:05;;;;;;;4.87;2.80;;;24.00;47.00;;;;;;5081121;28;20447;-61
2022/08/09 09:29:40;;;;;;;3.30;3.00;;;24.10;46.50;;;;;;5085429;28;20456;-61
2022/08/09 09:32:06;;;;;;;3.73;2.80;;;24.10;46.00;;;;;;5079339;28;20462;-61
2022/08/09 09:34:32;;;;;;;2.63;2.43;;;24.20;44.80;;;;;;5083417;28;20425;-61
2022/08/09 09:36:59;;;;;;;4.50;2.73;;;24.30;44.40;;;;;;5081437;28;20780;-61
2022/08/09 09:39:26;;;;;;;3.63;2.70;;;24.30;44.60;;;;;;5078652;28;20432;-61
2022/08/09 09:41:53;;;;;;;3.40;2.80;;;24.40;45.00;;;;;;5075720;28;20506;-61
2022/08/09 09:44:26;;;;;;;2.87;2.67;;;24.50;44.50;;;;;;5075751;28;20899;-61
2022/08/09 09:47:15;;;;;;;3.33;2.57;;;24.50;42.90;;;;;;5080362;28;20424;-61
2022/08/09 09:49:49;;;;;;;3.50;2.67;;;24.60;42.00;;;;;;5079784;28;20543;-61
2022/08/09 09:52:15;;;;;;;2.50;2.30;;;24.60;41.30;;;;;;5077100;28;20451;-61
2022/08/09 09:54:45;;;;;;;3.93;2.47;;;24.70;41.20;;;;;;5083756;28;20469;-62
2022/08/09 09:57:16;;;;;;;3.27;2.10;;;24.70;42.80;;;;;;5075327;28;20170;-61
2022/08/09 09:59:43;;;;;;;4.33;2.50;;;24.80;41.80;;;;;;5074928;28;20969;-61
2022/08/09 10:02:10;;;;;;;2.50;2.30;;;24.90;41.30;;;;;;5075475;28;20467;-61
2022/08/09 10:04:37;;;;;;;5.50;2.40;;;25.00;42.20;;;;;;5079637;28;20428;-61
2022/08/09 10:07:03;;;;;;;5.53;2.50;;;25.10;41.40;;;;;;5079010;28;20435;-61
2022/08/09 10:09:46;;;;;;;2.70;2.50;;;25.20;41.40;;;;;;5081646;28;20452;-61
2022/08/09 10:12:29;;;;;;;2.10;2.00;;;25.20;41.80;;;;;;5089879;28;20968;-61
2022/08/09 10:15:10;;;;;;;7.20;2.47;;;25.40;41.50;;;;;;5085878;28;20421;-61
2022/08/09 10:17:36;;;;;;;5.60;2.30;;;25.50;40.90;;;;;;5076835;28;20431;-61
2022/08/09 10:20:25;;;;;;;4.33;2.03;;;25.60;41.20;;;;;;5082222;28;20484;-61
2022/08/09 10:22:59;;;;;;;2.50;2.30;;;25.60;41.00;;;;;;5092481;28;20196;-61
2022/08/09 10:25:25;;;;;;;4.13;2.13;;;25.70;40.20;;;;;;5081884;28;20518;-61
2022/08/09 10:27:50;;;;;;;4.93;2.10;;;25.70;40.70;;;;;;5081961;28;21164;-61
2022/08/09 10:30:16;;;;;;;2.57;2.37;;;25.80;41.50;;;;;;5081668;28;20197;-62
2022/08/09 10:32:44;;;;;;;2.57;2.37;;;25.90;41.20;;;;;;5086708;28;20684;-61
2022/08/09 10:35:10;;;;;;;5.03;2.10;;;25.90;41.40;;;;;;5087628;28;20640;-63
2022/08/09 10:37:36;;;;;;;6.57;2.40;;;26.00;40.60;;;;;;5082832;28;20780;-61
2022/08/09 10:40:04;;;;;;;4.97;2.50;;;26.10;39.30;;;;;;5087966;28;20415;-62
2022/08/09 10:42:29;;;;;;;10.10;2.77;;;26.10;38.60;;;;;;5087147;28;21137;-61
2022/08/09 10:44:56;;;;;;;6.77;2.50;;;26.10;38.70;;;;;;5084189;28;20454;-62
2022/08/09 10:47:41;;;;;;;6.07;2.90;;;26.20;39.60;;;;;;5089009;28;20173;-61
2022/08/09 10:53:41;;;;;;;4.87;2.43;;;26.30;38.90;;;;;;5074584;28;20446;-61
2022/08/09 10:56:22;;;;;;;3.83;2.53;;;26.50;39.10;;;;;;5080023;28;20428;-62
2022/08/09 10:58:49;;;;;;;3.90;2.47;;;26.50;38.20;;;;;;5079333;28;20514;-61
2022/08/09 11:01:30;;;;;;;3.53;2.50;;;26.60;38.10;;;;;;5077089;28;20746;-61
2022/08/09 11:04:22;;;;;;;5.67;2.33;;;26.70;37.70;;;;;;5080137;28;20458;-61
2022/08/09 11:07:09;;;;;;;2.70;2.33;;;26.80;37.80;;;;;;5080652;28;20858;-61
2022/08/09 11:09:37;;;;;;;4.00;2.10;;;26.90;37.40;;;;;;5076159;28;20494;-61
2022/08/09 11:12:18;;;;;;;2.90;2.50;;;26.90;36.90;;;;;;5076418;28;20530;-61
2022/08/09 11:14:53;;;;;;;3.50;2.07;;;27.00;36.50;;;;;;5086201;28;20426;-61
2022/08/09 11:17:19;;;;;;;2.33;2.13;;;27.10;36.50;;;;;;5080462;28;20440;-61
2022/08/09 11:19:57;;;;;;;2.60;2.37;;;27.10;35.70;;;;;;5082643;28;20435;-61
2022/08/09 11:22:44;;;;;;;4.47;2.53;;;27.10;36.30;;;;;;5078282;28;20686;-61
2022/08/09 11:25:13;;;;;;;2.80;2.27;;;27.20;36.60;;;;;;5071472;28;20424;-61
2022/08/09 11:27:42;;;;;;;2.57;2.37;;;27.30;36.90;;;;;;5076555;28;20170;-61
2022/08/09 11:30:10;;;;;;;2.40;2.20;;;27.40;37.00;;;;;;5081758;28;20610;-61
2022/08/09 11:32:38;;;;;;;3.60;2.30;;;27.50;36.90;;;;;;5088450;28;20207;-61
2022/08/09 11:35:24;;;;;;;3.70;2.47;;;27.60;36.60;;;;;;5082390;28;20162;-61
2022/08/09 11:37:51;;;;;;;4.67;2.00;;;27.70;37.80;;;;;;5082337;28;20207;-61
2022/08/09 11:40:28;;;;;;;6.20;2.40;;;27.90;37.50;;;;;;5090450;28;20171;-61
2022/08/09 11:42:56;;;;;;;3.20;2.60;;;27.90;36.20;;;;;;5087167;28;20203;-61
2022/08/09 11:45:37;;;;;;;3.43;2.50;;;28.10;35.80;;;;;;5088167;28;20176;-61
2022/08/09 11:48:23;;;;;;;3.20;2.43;;;28.20;37.10;;;;;;5092245;28;20176;-61
2022/08/09 11:51:00;;;;;;;2.93;2.00;;;28.30;37.50;;;;;;5091944;28;20278;-61
2022/08/09 11:53:26;;;;;;;3.87;2.40;;;28.40;37.70;;;;;;5086282;28;20181;-61
2022/08/09 11:55:54;;;;;;;4.43;2.30;;;28.50;36.90;;;;;;5082583;28;20173;-61
2022/08/09 11:58:19;;;;;;;5.50;2.50;;;28.60;36.50;;;;;;5083545;28;20261;-61
2022/08/09 12:00:53;;;;;;;2.90;2.00;;;28.60;36.70;;;;;;5083476;28;20314;-63
2022/08/09 12:03:24;;;;;;;3.00;2.50;;;28.70;36.30;;;;;;5079581;28;20201;-61
2022/08/09 12:05:52;;;;;;;2.77;2.20;;;28.90;36.70;;;;;;5081726;28;20166;-60
2022/08/09 12:08:19;;;;;;;6.80;2.57;;;29.00;36.60;;;;;;5080930;28;20185;-60
2022/08/09 12:10:47;;;;;;;5.25;2.67;;;29.10;35.70;;;;;;5077674;28;20700;-60
2022/08/09 12:13:29;;;;;;;4.53;2.40;;;29.30;36.60;;;;;;5099513;28;20256;-62
2022/08/09 12:15:59;;;;;;;3.25;2.08;;;29.40;36.50;;;;;;5079367;28;21376;-61
2022/08/09 12:18:26;;;;;;;3.75;2.17;;;29.50;36.00;;;;;;5092424;28;20683;-61
2022/08/09 12:20:51;;;;;;;2.30;2.13;;;29.60;35.40;;;;;;5077687;28;20203;-61
2022/08/09 12:23:17;;;;;;;2.75;2.13;;;29.60;35.80;;;;;;5086257;28;21007;-61
2022/08/09 12:25:50;;;;;;;2.78;2.50;;;29.70;35.60;;;;;;5077254;28;20181;-60
2022/08/09 12:28:21;;;;;;;3.22;2.05;;;29.70;34.90;;;;;;5081930;28;20178;-61
2022/08/09 12:30:48;;;;;;;3.50;2.35;;;29.80;34.60;;;;;;5084462;28;20197;-61
2022/08/09 12:33:15;;;;;;;2.50;2.15;;;29.80;34.60;;;;;;5080963;28;20729;-61
2022/08/09 12:35:41;;;;;;;3.20;1.95;;;29.90;35.50;;;;;;5087558;28;20168;-61
2022/08/09 12:38:29;;;;;;;2.78;1.80;;;30.00;34.80;;;;;;5069999;28;20312;-61
2022/08/09 12:40:57;;;;;;;2.88;2.53;;;30.10;34.80;;;;;;5072256;28;20185;-61
2022/08/09 12:43:27;;;;;;;2.50;2.30;;;30.30;34.90;;;;;;5073526;28;20607;-61
2022/08/09 12:45:55;;;;;;;8.80;2.00;;;30.50;35.30;;;;;;5083593;28;20181;-62
2022/08/09 12:48:21;;;;;;;3.50;2.10;;;30.60;34.80;;;;;;5081860;28;20177;-62
2022/08/09 12:50:49;;;;;;;3.10;2.05;;;30.70;34.30;;;;;;5078840;28;20205;-61
2022/08/09 12:53:36;;;;;;;2.40;1.83;;;30.90;33.80;;;;;;5082654;28;20558;-60
2022/08/09 12:56:09;;;;;;;2.78;2.58;;;30.90;33.70;;;;;;5079070;28;20173;-61
2022/08/09 12:58:35;;;;;;;3.75;2.42;;;31.00;34.50;;;;;;5080396;28;20170;-60